sensor_id;sensor_type;location;lat;lon;timestamp;P1;durP1;ratioP1;P2;durP2;ratioP2
13263;SDS011;6700;51.988;7.646;2022-11-15T00:00:32;11.50;;;9.03;;
13263;SDS011;6700;51.988;7.646;2022-11-15T00:02:59;11.90;;;9.50;;
13263;SDS011;6700;51.988;7.646;2022-11-15T00:05:33;13.37;;;9.20;;
13263;SDS011;6700;51.988;7.646;2022-11-15T00:08:02;12.77;;;9.53;;
13263;SDS011;6700;51.988;7.646;2022-11-15T00:10:30;14.47;;;10.20;;
13263;SDS011;6700;51.988;7.646;2022-11-15T00:12:57;13.13;;;10.40;;
13263;SDS011;6700;51.988;7.646;2022-11-15T00:15:24;14.77;;;9.90;;
13263;SDS011;6700;51.988;7.646;2022-11-15T00:17:51;13.23;;;10.27;;
13263;SDS011;6700;51.988;7.646;2022-11-15T00:20:18;12.90;;;9.77;;
13263;SDS011;6700;51.988;7.646;2022-11-15T00:26:12;13.27;;;9.87;;
13263;SDS011;6700;51.988;7.646;2022-11-15T00:28:40;12.90;;;10.10;;
13263;SDS011;6700;51.988;7.646;2022-11-15T00:31:08;14.40;;;11.63;;
13263;SDS011;6700;51.988;7.646;2022-11-15T00:33:36;14.03;;;10.30;;
13263;SDS011;6700;51.988;7.646;2022-11-15T00:36:06;14.20;;;10.30;;
13263;SDS011;6700;51.988;7.646;2022-11-15T00:38:39;13.00;;;9.93;;
13263;SDS011;6700;51.988;7.646;2022-11-15T00:41:07;10.83;;;9.10;;
13263;SDS011;6700;51.988;7.646;2022-11-15T00:43:35;11.97;;;9.43;;
13263;SDS011;6700;51.988;7.646;2022-11-15T00:46:03;10.67;;;9.33;;
13263;SDS011;6700;51.988;7.646;2022-11-15T00:48:31;13.77;;;10.43;;
13263;SDS011;6700;51.988;7.646;2022-11-15T00:50:59;12.90;;;9.07;;
13263;SDS011;6700;51.988;7.646;2022-11-15T00:53:27;10.90;;;9.40;;
13263;SDS011;6700;51.988;7.646;2022-11-15T00:55:54;11.93;;;8.97;;
13263;SDS011;6700;51.988;7.646;2022-11-15T00:58:21;11.13;;;8.60;;
13263;SDS011;6700;51.988;7.646;2022-11-15T01:00:48;12.30;;;9.60;;
13263;SDS011;6700;51.988;7.646;2022-11-15T01:03:15;10.20;;;8.87;;
13263;SDS011;6700;51.988;7.646;2022-11-15T01:05:42;10.93;;;9.07;;
13263;SDS011;6700;51.988;7.646;2022-11-15T01:08:13;10.67;;;9.20;;
13263;SDS011;6700;51.988;7.646;2022-11-15T01:10:40;11.77;;;9.43;;
13263;SDS011;6700;51.988;7.646;2022-11-15T01:13:07;11.33;;;8.83;;
13263;SDS011;6700;51.988;7.646;2022-11-15T01:15:38;11.93;;;9.60;;
13263;SDS011;6700;51.988;7.646;2022-11-15T01:18:05;9.33;;;8.40;;
13263;SDS011;6700;51.988;7.646;2022-11-15T01:20:32;10.50;;;8.67;;
13263;SDS011;6700;51.988;7.646;2022-11-15T01:22:59;12.47;;;9.50;;
13263;SDS011;6700;51.988;7.646;2022-11-15T01:25:26;12.47;;;9.57;;
13263;SDS011;6700;51.988;7.646;2022-11-15T01:27:53;9.97;;;8.37;;
13263;SDS011;6700;51.988;7.646;2022-11-15T01:30:20;10.07;;;9.00;;
13263;SDS011;6700;51.988;7.646;2022-11-15T01:32:47;10.77;;;8.13;;
13263;SDS011;6700;51.988;7.646;2022-11-15T01:35:14;15.07;;;9.40;;
13263;SDS011;6700;51.988;7.646;2022-11-15T01:37:42;13.10;;;9.00;;
13263;SDS011;6700;51.988;7.646;2022-11-15T01:40:09;11.67;;;9.20;;
13263;SDS011;6700;51.988;7.646;2022-11-15T01:42:36;12.30;;;8.97;;
13263;SDS011;6700;51.988;7.646;2022-11-15T01:45:03;12.73;;;8.73;;
13263;SDS011;6700;51.988;7.646;2022-11-15T01:47:31;10.27;;;8.37;;
13263;SDS011;6700;51.988;7.646;2022-11-15T01:52:30;11.23;;;8.97;;
13263;SDS011;6700;51.988;7.646;2022-11-15T01:55:08;11.60;;;8.93;;
13263;SDS011;6700;51.988;7.646;2022-11-15T01:57:36;12.00;;;8.47;;
13263;SDS011;6700;51.988;7.646;2022-11-15T02:00:03;14.97;;;8.87;;
13263;SDS011;6700;51.988;7.646;2022-11-15T02:02:31;14.60;;;9.33;;
13263;SDS011;6700;51.988;7.646;2022-11-15T02:04:59;12.60;;;8.77;;
13263;SDS011;6700;51.988;7.646;2022-11-15T02:07:26;11.83;;;8.43;;
13263;SDS011;6700;51.988;7.646;2022-11-15T02:09:55;9.57;;;8.17;;
13263;SDS011;6700;51.988;7.646;2022-11-15T02:12:24;11.87;;;8.10;;
13263;SDS011;6700;51.988;7.646;2022-11-15T02:14:52;11.90;;;8.70;;
13263;SDS011;6700;51.988;7.646;2022-11-15T02:17:31;10.83;;;8.50;;
13263;SDS011;6700;51.988;7.646;2022-11-15T02:25:23;10.07;;;7.87;;
13263;SDS011;6700;51.988;7.646;2022-11-15T02:36:26;10.13;;;8.73;;
13263;SDS011;6700;51.988;7.646;2022-11-15T02:39:00;9.20;;;7.73;;
13263;SDS011;6700;51.988;7.646;2022-11-15T02:41:31;9.37;;;7.97;;
13263;SDS011;6700;51.988;7.646;2022-11-15T02:44:12;11.53;;;8.63;;
13263;SDS011;6700;51.988;7.646;2022-11-15T02:46:42;9.67;;;8.37;;
13263;SDS011;6700;51.988;7.646;2022-11-15T02:49:31;10.33;;;8.13;;
13263;SDS011;6700;51.988;7.646;2022-11-15T02:51:59;11.77;;;9.03;;
13263;SDS011;6700;51.988;7.646;2022-11-15T02:54:30;9.43;;;8.33;;
13263;SDS011;6700;51.988;7.646;2022-11-15T02:57:00;12.00;;;7.83;;
13263;SDS011;6700;51.988;7.646;2022-11-15T03:04:52;11.50;;;8.03;;
13263;SDS011;6700;51.988;7.646;2022-11-15T03:07:31;9.93;;;8.07;;
13263;SDS011;6700;51.988;7.646;2022-11-15T03:10:05;9.30;;;7.50;;
13263;SDS011;6700;51.988;7.646;2022-11-15T03:12:37;10.77;;;8.50;;
13263;SDS011;6700;51.988;7.646;2022-11-15T03:15:29;8.83;;;7.93;;
13263;SDS011;6700;51.988;7.646;2022-11-15T03:17:59;10.07;;;7.93;;
13263;SDS011;6700;51.988;7.646;2022-11-15T03:20:28;10.77;;;8.93;;
13263;SDS011;6700;51.988;7.646;2022-11-15T03:22:56;11.57;;;9.37;;
13263;SDS011;6700;51.988;7.646;2022-11-15T03:25:25;10.97;;;9.30;;
13263;SDS011;6700;51.988;7.646;2022-11-15T03:27:54;10.50;;;8.17;;
13263;SDS011;6700;51.988;7.646;2022-11-15T03:30:22;8.83;;;7.93;;
13263;SDS011;6700;51.988;7.646;2022-11-15T03:32:51;12.30;;;9.33;;
13263;SDS011;6700;51.988;7.646;2022-11-15T03:35:22;10.30;;;8.27;;
13263;SDS011;6700;51.988;7.646;2022-11-15T03:40:17;11.83;;;8.60;;
13263;SDS011;6700;51.988;7.646;2022-11-15T03:42:48;12.70;;;8.60;;
13263;SDS011;6700;51.988;7.646;2022-11-15T03:45:19;11.40;;;8.00;;
13263;SDS011;6700;51.988;7.646;2022-11-15T03:47:51;8.80;;;7.90;;
13263;SDS011;6700;51.988;7.646;2022-11-15T03:50:20;13.27;;;8.27;;
13263;SDS011;6700;51.988;7.646;2022-11-15T03:52:49;11.93;;;8.73;;
13263;SDS011;6700;51.988;7.646;2022-11-15T03:55:17;13.07;;;8.50;;
13263;SDS011;6700;51.988;7.646;2022-11-15T03:57:46;10.67;;;8.43;;
13263;SDS011;6700;51.988;7.646;2022-11-15T04:00:13;12.03;;;8.77;;
13263;SDS011;6700;51.988;7.646;2022-11-15T04:02:40;10.70;;;8.40;;
13263;SDS011;6700;51.988;7.646;2022-11-15T04:05:08;10.13;;;7.83;;
13263;SDS011;6700;51.988;7.646;2022-11-15T04:07:35;8.17;;;7.33;;
13263;SDS011;6700;51.988;7.646;2022-11-15T04:10:02;10.33;;;8.30;;
13263;SDS011;6700;51.988;7.646;2022-11-15T04:14:58;10.40;;;8.27;;
13263;SDS011;6700;51.988;7.646;2022-11-15T04:20:05;9.53;;;8.43;;
13263;SDS011;6700;51.988;7.646;2022-11-15T04:22:57;10.07;;;8.63;;
13263;SDS011;6700;51.988;7.646;2022-11-15T04:25:44;12.00;;;8.70;;
13263;SDS011;6700;51.988;7.646;2022-11-15T04:28:11;11.50;;;8.20;;
13263;SDS011;6700;51.988;7.646;2022-11-15T04:30:38;9.57;;;8.03;;
13263;SDS011;6700;51.988;7.646;2022-11-15T04:33:05;11.17;;;7.83;;
13263;SDS011;6700;51.988;7.646;2022-11-15T04:35:33;11.47;;;8.27;;
13263;SDS011;6700;51.988;7.646;2022-11-15T04:38:00;12.97;;;9.07;;
13263;SDS011;6700;51.988;7.646;2022-11-15T04:40:28;10.47;;;8.50;;
13263;SDS011;6700;51.988;7.646;2022-11-15T04:42:55;12.13;;;8.60;;
13263;SDS011;6700;51.988;7.646;2022-11-15T04:45:28;13.77;;;8.73;;
13263;SDS011;6700;51.988;7.646;2022-11-15T04:47:55;9.73;;;7.63;;
13263;SDS011;6700;51.988;7.646;2022-11-15T04:50:22;11.70;;;8.23;;
13263;SDS011;6700;51.988;7.646;2022-11-15T04:52:51;13.53;;;8.60;;
13263;SDS011;6700;51.988;7.646;2022-11-15T04:55:18;11.43;;;8.83;;
13263;SDS011;6700;51.988;7.646;2022-11-15T04:57:45;13.87;;;8.23;;
13263;SDS011;6700;51.988;7.646;2022-11-15T05:00:14;15.03;;;8.47;;
13263;SDS011;6700;51.988;7.646;2022-11-15T05:05:47;11.13;;;8.00;;
13263;SDS011;6700;51.988;7.646;2022-11-15T05:08:14;12.90;;;9.07;;
13263;SDS011;6700;51.988;7.646;2022-11-15T05:10:41;9.57;;;7.97;;
13263;SDS011;6700;51.988;7.646;2022-11-15T05:13:08;9.17;;;7.60;;
13263;SDS011;6700;51.988;7.646;2022-11-15T05:15:35;9.90;;;8.10;;
13263;SDS011;6700;51.988;7.646;2022-11-15T05:18:02;9.67;;;7.83;;
13263;SDS011;6700;51.988;7.646;2022-11-15T05:20:29;10.33;;;7.73;;
13263;SDS011;6700;51.988;7.646;2022-11-15T05:22:56;10.90;;;8.57;;
13263;SDS011;6700;51.988;7.646;2022-11-15T05:25:24;13.30;;;8.23;;
13263;SDS011;6700;51.988;7.646;2022-11-15T05:27:51;9.60;;;7.80;;
13263;SDS011;6700;51.988;7.646;2022-11-15T05:30:18;12.27;;;7.93;;
13263;SDS011;6700;51.988;7.646;2022-11-15T05:32:45;10.67;;;8.70;;
13263;SDS011;6700;51.988;7.646;2022-11-15T05:35:14;9.03;;;7.47;;
13263;SDS011;6700;51.988;7.646;2022-11-15T05:37:44;9.37;;;7.50;;
13263;SDS011;6700;51.988;7.646;2022-11-15T05:40:11;15.17;;;8.53;;
13263;SDS011;6700;51.988;7.646;2022-11-15T05:42:38;13.20;;;8.67;;
13263;SDS011;6700;51.988;7.646;2022-11-15T05:45:05;10.50;;;8.80;;
13263;SDS011;6700;51.988;7.646;2022-11-15T05:47:33;11.77;;;9.00;;
13263;SDS011;6700;51.988;7.646;2022-11-15T05:50:02;13.53;;;8.37;;
13263;SDS011;6700;51.988;7.646;2022-11-15T05:52:30;9.60;;;7.20;;
13263;SDS011;6700;51.988;7.646;2022-11-15T05:54:58;10.63;;;9.13;;
13263;SDS011;6700;51.988;7.646;2022-11-15T05:57:25;11.67;;;8.73;;
13263;SDS011;6700;51.988;7.646;2022-11-15T05:59:52;9.97;;;8.47;;
13263;SDS011;6700;51.988;7.646;2022-11-15T06:02:20;10.10;;;8.30;;
13263;SDS011;6700;51.988;7.646;2022-11-15T06:04:47;12.37;;;8.33;;
13263;SDS011;6700;51.988;7.646;2022-11-15T06:07:14;13.00;;;9.10;;
13263;SDS011;6700;51.988;7.646;2022-11-15T06:09:42;12.57;;;7.93;;
13263;SDS011;6700;51.988;7.646;2022-11-15T06:12:09;12.17;;;9.17;;
13263;SDS011;6700;51.988;7.646;2022-11-15T06:14:36;10.40;;;8.57;;
13263;SDS011;6700;51.988;7.646;2022-11-15T06:17:03;11.23;;;8.70;;
13263;SDS011;6700;51.988;7.646;2022-11-15T06:19:36;12.67;;;8.33;;
13263;SDS011;6700;51.988;7.646;2022-11-15T06:22:03;14.50;;;8.13;;
13263;SDS011;6700;51.988;7.646;2022-11-15T06:24:30;10.90;;;8.10;;
13263;SDS011;6700;51.988;7.646;2022-11-15T06:26:57;14.37;;;8.67;;
13263;SDS011;6700;51.988;7.646;2022-11-15T06:29:25;12.57;;;8.53;;
13263;SDS011;6700;51.988;7.646;2022-11-15T06:34:31;13.13;;;9.23;;
13263;SDS011;6700;51.988;7.646;2022-11-15T06:36:58;11.10;;;9.23;;
13263;SDS011;6700;51.988;7.646;2022-11-15T06:39:25;13.00;;;9.60;;
13263;SDS011;6700;51.988;7.646;2022-11-15T06:41:52;15.10;;;9.43;;
13263;SDS011;6700;51.988;7.646;2022-11-15T06:44:19;13.23;;;9.73;;
13263;SDS011;6700;51.988;7.646;2022-11-15T06:46:46;11.20;;;7.97;;
13263;SDS011;6700;51.988;7.646;2022-11-15T06:49:13;13.17;;;9.23;;
13263;SDS011;6700;51.988;7.646;2022-11-15T06:51:40;11.97;;;8.87;;
13263;SDS011;6700;51.988;7.646;2022-11-15T06:54:07;15.87;;;8.67;;
13263;SDS011;6700;51.988;7.646;2022-11-15T06:56:34;12.07;;;8.20;;
13263;SDS011;6700;51.988;7.646;2022-11-15T06:59:02;10.20;;;8.10;;
13263;SDS011;6700;51.988;7.646;2022-11-15T07:01:29;13.37;;;9.33;;
13263;SDS011;6700;51.988;7.646;2022-11-15T07:03:56;12.00;;;8.83;;
13263;SDS011;6700;51.988;7.646;2022-11-15T07:06:23;10.03;;;8.37;;
13263;SDS011;6700;51.988;7.646;2022-11-15T07:08:50;11.00;;;8.43;;
13263;SDS011;6700;51.988;7.646;2022-11-15T07:11:17;10.10;;;8.90;;
13263;SDS011;6700;51.988;7.646;2022-11-15T07:13:44;12.33;;;8.70;;
13263;SDS011;6700;51.988;7.646;2022-11-15T07:16:12;11.17;;;9.23;;
13263;SDS011;6700;51.988;7.646;2022-11-15T07:18:39;15.70;;;9.50;;
13263;SDS011;6700;51.988;7.646;2022-11-15T07:21:07;13.60;;;8.63;;
13263;SDS011;6700;51.988;7.646;2022-11-15T07:23:36;11.90;;;9.10;;
13263;SDS011;6700;51.988;7.646;2022-11-15T07:26:04;14.87;;;9.60;;
13263;SDS011;6700;51.988;7.646;2022-11-15T07:28:31;10.77;;;9.00;;
13263;SDS011;6700;51.988;7.646;2022-11-15T07:31:01;10.33;;;8.83;;
13263;SDS011;6700;51.988;7.646;2022-11-15T07:33:29;14.10;;;9.27;;
13263;SDS011;6700;51.988;7.646;2022-11-15T07:36:00;14.00;;;8.53;;
13263;SDS011;6700;51.988;7.646;2022-11-15T07:38:28;11.80;;;8.47;;
13263;SDS011;6700;51.988;7.646;2022-11-15T07:40:56;9.83;;;8.53;;
13263;SDS011;6700;51.988;7.646;2022-11-15T07:43:24;11.23;;;7.93;;
13263;SDS011;6700;51.988;7.646;2022-11-15T07:45:51;11.97;;;8.17;;
13263;SDS011;6700;51.988;7.646;2022-11-15T07:48:24;8.77;;;7.73;;
13263;SDS011;6700;51.988;7.646;2022-11-15T07:51:10;9.40;;;8.27;;
13263;SDS011;6700;51.988;7.646;2022-11-15T07:53:39;9.80;;;7.50;;
13263;SDS011;6700;51.988;7.646;2022-11-15T07:56:06;11.20;;;7.57;;
13263;SDS011;6700;51.988;7.646;2022-11-15T07:58:34;7.13;;;6.50;;
13263;SDS011;6700;51.988;7.646;2022-11-15T08:01:04;10.23;;;7.40;;
13263;SDS011;6700;51.988;7.646;2022-11-15T08:03:32;8.17;;;6.83;;
13263;SDS011;6700;51.988;7.646;2022-11-15T08:06:00;7.47;;;6.27;;
13263;SDS011;6700;51.988;7.646;2022-11-15T08:08:27;9.03;;;7.10;;
13263;SDS011;6700;51.988;7.646;2022-11-15T08:10:56;8.70;;;7.10;;
13263;SDS011;6700;51.988;7.646;2022-11-15T08:13:23;9.90;;;7.20;;
13263;SDS011;6700;51.988;7.646;2022-11-15T08:15:51;14.53;;;6.90;;
13263;SDS011;6700;51.988;7.646;2022-11-15T08:18:23;7.53;;;6.80;;
13263;SDS011;6700;51.988;7.646;2022-11-15T08:20:50;6.57;;;5.73;;
13263;SDS011;6700;51.988;7.646;2022-11-15T08:23:17;9.87;;;6.00;;
13263;SDS011;6700;51.988;7.646;2022-11-15T08:25:44;6.90;;;5.47;;
13263;SDS011;6700;51.988;7.646;2022-11-15T08:28:11;5.90;;;5.27;;
13263;SDS011;6700;51.988;7.646;2022-11-15T08:30:39;6.93;;;5.80;;
13263;SDS011;6700;51.988;7.646;2022-11-15T08:33:11;6.07;;;5.47;;
13263;SDS011;6700;51.988;7.646;2022-11-15T08:35:39;7.70;;;5.23;;
13263;SDS011;6700;51.988;7.646;2022-11-15T08:38:07;5.47;;;4.53;;
13263;SDS011;6700;51.988;7.646;2022-11-15T08:40:34;4.47;;;4.07;;
13263;SDS011;6700;51.988;7.646;2022-11-15T08:43:02;6.10;;;4.30;;
13263;SDS011;6700;51.988;7.646;2022-11-15T08:45:30;4.30;;;3.90;;
13263;SDS011;6700;51.988;7.646;2022-11-15T08:47:57;7.10;;;4.40;;
13263;SDS011;6700;51.988;7.646;2022-11-15T08:50:24;5.60;;;3.80;;
13263;SDS011;6700;51.988;7.646;2022-11-15T08:52:51;5.57;;;3.90;;
13263;SDS011;6700;51.988;7.646;2022-11-15T08:55:18;4.77;;;3.30;;
13263;SDS011;6700;51.988;7.646;2022-11-15T08:57:49;3.50;;;3.20;;
13263;SDS011;6700;51.988;7.646;2022-11-15T09:00:17;4.77;;;3.80;;
13263;SDS011;6700;51.988;7.646;2022-11-15T09:02:45;5.40;;;3.20;;
13263;SDS011;6700;51.988;7.646;2022-11-15T09:05:12;5.63;;;3.77;;
13263;SDS011;6700;51.988;7.646;2022-11-15T09:07:41;6.33;;;3.30;;
13263;SDS011;6700;51.988;7.646;2022-11-15T09:10:09;3.40;;;3.10;;
13263;SDS011;6700;51.988;7.646;2022-11-15T09:12:36;4.37;;;3.00;;
13263;SDS011;6700;51.988;7.646;2022-11-15T09:15:04;3.20;;;2.67;;
13263;SDS011;6700;51.988;7.646;2022-11-15T09:17:32;4.20;;;3.37;;
13263;SDS011;6700;51.988;7.646;2022-11-15T09:19:59;2.73;;;2.53;;
13263;SDS011;6700;51.988;7.646;2022-11-15T09:22:26;3.33;;;2.63;;
13263;SDS011;6700;51.988;7.646;2022-11-15T09:24:53;6.17;;;2.87;;
13263;SDS011;6700;51.988;7.646;2022-11-15T09:27:20;4.20;;;2.93;;
13263;SDS011;6700;51.988;7.646;2022-11-15T09:29:48;2.43;;;2.17;;
13263;SDS011;6700;51.988;7.646;2022-11-15T09:32:15;2.30;;;2.00;;
13263;SDS011;6700;51.988;7.646;2022-11-15T09:34:42;2.33;;;2.13;;
13263;SDS011;6700;51.988;7.646;2022-11-15T09:37:09;3.17;;;2.53;;
13263;SDS011;6700;51.988;7.646;2022-11-15T09:39:36;4.07;;;2.50;;
13263;SDS011;6700;51.988;7.646;2022-11-15T09:42:10;3.63;;;2.40;;
13263;SDS011;6700;51.988;7.646;2022-11-15T09:49:55;2.90;;;2.37;;
13263;SDS011;6700;51.988;7.646;2022-11-15T09:52:23;2.07;;;1.93;;
13263;SDS011;6700;51.988;7.646;2022-11-15T09:54:51;2.27;;;2.07;;
13263;SDS011;6700;51.988;7.646;2022-11-15T09:57:24;2.30;;;2.00;;
13263;SDS011;6700;51.988;7.646;2022-11-15T09:59:59;2.70;;;2.27;;
13263;SDS011;6700;51.988;7.646;2022-11-15T10:02:56;2.67;;;2.30;;
13263;SDS011;6700;51.988;7.646;2022-11-15T10:05:25;6.13;;;2.33;;
13263;SDS011;6700;51.988;7.646;2022-11-15T10:08:03;2.30;;;2.10;;
13263;SDS011;6700;51.988;7.646;2022-11-15T10:12:58;2.63;;;2.20;;
13263;SDS011;6700;51.988;7.646;2022-11-15T10:15:25;4.10;;;2.33;;
13263;SDS011;6700;51.988;7.646;2022-11-15T10:20:34;2.37;;;2.00;;
13263;SDS011;6700;51.988;7.646;2022-11-15T10:23:10;2.10;;;1.90;;
13263;SDS011;6700;51.988;7.646;2022-11-15T10:25:37;4.70;;;2.33;;
13263;SDS011;6700;51.988;7.646;2022-11-15T10:30:47;2.87;;;2.03;;
13263;SDS011;6700;51.988;7.646;2022-11-15T10:38:53;2.57;;;1.73;;
13263;SDS011;6700;51.988;7.646;2022-11-15T10:46:40;2.30;;;2.10;;
13263;SDS011;6700;51.988;7.646;2022-11-15T10:51:47;4.93;;;1.73;;
13263;SDS011;6700;51.988;7.646;2022-11-15T10:54:44;3.83;;;1.80;;
13263;SDS011;6700;51.988;7.646;2022-11-15T10:57:16;2.00;;;1.77;;
13263;SDS011;6700;51.988;7.646;2022-11-15T10:59:45;2.87;;;1.80;;
13263;SDS011;6700;51.988;7.646;2022-11-15T11:05:00;2.43;;;1.83;;
13263;SDS011;6700;51.988;7.646;2022-11-15T11:07:28;1.60;;;1.50;;
13263;SDS011;6700;51.988;7.646;2022-11-15T11:10:38;3.37;;;1.43;;
13263;SDS011;6700;51.988;7.646;2022-11-15T11:13:13;1.40;;;1.30;;
13263;SDS011;6700;51.988;7.646;2022-11-15T11:15:42;1.63;;;1.40;;
13263;SDS011;6700;51.988;7.646;2022-11-15T11:18:14;4.13;;;2.53;;
13263;SDS011;6700;51.988;7.646;2022-11-15T11:20:50;2.63;;;1.63;;
13263;SDS011;6700;51.988;7.646;2022-11-15T11:26:33;2.70;;;1.80;;
13263;SDS011;6700;51.988;7.646;2022-11-15T11:37:14;1.60;;;1.27;;
13263;SDS011;6700;51.988;7.646;2022-11-15T11:39:48;1.37;;;1.20;;
13263;SDS011;6700;51.988;7.646;2022-11-15T11:42:29;3.00;;;1.40;;
13263;SDS011;6700;51.988;7.646;2022-11-15T11:45:04;1.80;;;1.47;;
13263;SDS011;6700;51.988;7.646;2022-11-15T11:47:40;3.73;;;1.43;;
13263;SDS011;6700;51.988;7.646;2022-11-15T11:50:12;3.23;;;1.43;;
13263;SDS011;6700;51.988;7.646;2022-11-15T11:52:43;1.60;;;1.50;;
13263;SDS011;6700;51.988;7.646;2022-11-15T11:58:17;2.27;;;1.70;;
13263;SDS011;6700;51.988;7.646;2022-11-15T12:00:51;3.20;;;1.60;;
13263;SDS011;6700;51.988;7.646;2022-11-15T12:03:30;2.53;;;1.30;;
13263;SDS011;6700;51.988;7.646;2022-11-15T12:06:04;1.63;;;1.40;;
13263;SDS011;6700;51.988;7.646;2022-11-15T12:08:46;2.13;;;1.50;;
13263;SDS011;6700;51.988;7.646;2022-11-15T12:11:21;3.17;;;1.23;;
13263;SDS011;6700;51.988;7.646;2022-11-15T12:13:53;1.53;;;1.30;;
13263;SDS011;6700;51.988;7.646;2022-11-15T12:16:24;3.80;;;1.33;;
13263;SDS011;6700;51.988;7.646;2022-11-15T12:18:55;1.63;;;1.40;;
13263;SDS011;6700;51.988;7.646;2022-11-15T12:21:32;2.47;;;1.50;;
13263;SDS011;6700;51.988;7.646;2022-11-15T12:24:53;1.90;;;1.53;;
13263;SDS011;6700;51.988;7.646;2022-11-15T12:26:57;1.73;;;1.40;;
13263;SDS011;6700;51.988;7.646;2022-11-15T12:29:29;3.20;;;1.20;;
13263;SDS011;6700;51.988;7.646;2022-11-15T12:31:58;4.37;;;1.57;;
13263;SDS011;6700;51.988;7.646;2022-11-15T12:34:45;1.20;;;1.03;;
13263;SDS011;6700;51.988;7.646;2022-11-15T12:37:33;1.70;;;1.33;;
13263;SDS011;6700;51.988;7.646;2022-11-15T12:40:05;5.50;;;1.40;;
13263;SDS011;6700;51.988;7.646;2022-11-15T12:45:01;3.20;;;1.50;;
13263;SDS011;6700;51.988;7.646;2022-11-15T12:47:28;3.37;;;1.23;;
13263;SDS011;6700;51.988;7.646;2022-11-15T12:49:56;1.10;;;1.00;;
13263;SDS011;6700;51.988;7.646;2022-11-15T12:52:23;1.37;;;1.13;;
13263;SDS011;6700;51.988;7.646;2022-11-15T12:54:54;3.30;;;1.70;;
13263;SDS011;6700;51.988;7.646;2022-11-15T12:57:25;1.63;;;1.53;;
13263;SDS011;6700;51.988;7.646;2022-11-15T12:59:58;1.43;;;1.27;;
13263;SDS011;6700;51.988;7.646;2022-11-15T13:02:45;3.03;;;1.53;;
13263;SDS011;6700;51.988;7.646;2022-11-15T13:17:48;3.77;;;1.37;;
13263;SDS011;6700;51.988;7.646;2022-11-15T13:22:44;2.43;;;1.60;;
13263;SDS011;6700;51.988;7.646;2022-11-15T13:25:19;1.73;;;1.40;;
13263;SDS011;6700;51.988;7.646;2022-11-15T13:27:48;1.33;;;1.23;;
13263;SDS011;6700;51.988;7.646;2022-11-15T13:30:21;5.87;;;1.60;;
13263;SDS011;6700;51.988;7.646;2022-11-15T13:32:48;1.93;;;1.53;;
13263;SDS011;6700;51.988;7.646;2022-11-15T13:35:24;2.60;;;1.50;;
13263;SDS011;6700;51.988;7.646;2022-11-15T13:37:53;3.77;;;1.20;;
13263;SDS011;6700;51.988;7.646;2022-11-15T13:42:51;2.07;;;1.33;;
13263;SDS011;6700;51.988;7.646;2022-11-15T13:45:19;1.20;;;1.10;;
13263;SDS011;6700;51.988;7.646;2022-11-15T13:47:56;4.07;;;1.20;;
13263;SDS011;6700;51.988;7.646;2022-11-15T13:50:25;1.30;;;1.20;;
13263;SDS011;6700;51.988;7.646;2022-11-15T13:52:53;0.97;;;0.87;;
13263;SDS011;6700;51.988;7.646;2022-11-15T13:55:22;3.23;;;1.37;;
13263;SDS011;6700;51.988;7.646;2022-11-15T13:57:54;2.23;;;1.43;;
13263;SDS011;6700;51.988;7.646;2022-11-15T14:03:07;2.27;;;1.77;;
13263;SDS011;6700;51.988;7.646;2022-11-15T14:05:35;4.50;;;1.57;;
13263;SDS011;6700;51.988;7.646;2022-11-15T14:08:03;2.57;;;1.20;;
13263;SDS011;6700;51.988;7.646;2022-11-15T14:10:34;1.47;;;1.27;;
13263;SDS011;6700;51.988;7.646;2022-11-15T14:13:02;1.73;;;1.20;;
13263;SDS011;6700;51.988;7.646;2022-11-15T14:15:40;1.40;;;1.20;;
13263;SDS011;6700;51.988;7.646;2022-11-15T14:18:38;2.40;;;1.70;;
13263;SDS011;6700;51.988;7.646;2022-11-15T14:21:05;4.20;;;1.27;;
13263;SDS011;6700;51.988;7.646;2022-11-15T14:23:47;1.87;;;1.50;;
13263;SDS011;6700;51.988;7.646;2022-11-15T14:26:28;1.43;;;1.33;;
13263;SDS011;6700;51.988;7.646;2022-11-15T14:28:56;1.20;;;1.10;;
13263;SDS011;6700;51.988;7.646;2022-11-15T14:31:23;1.63;;;1.50;;
13263;SDS011;6700;51.988;7.646;2022-11-15T14:33:50;1.83;;;1.13;;
13263;SDS011;6700;51.988;7.646;2022-11-15T14:36:19;1.97;;;1.20;;
13263;SDS011;6700;51.988;7.646;2022-11-15T14:38:46;2.90;;;1.30;;
13263;SDS011;6700;51.988;7.646;2022-11-15T14:41:17;3.13;;;1.23;;
13263;SDS011;6700;51.988;7.646;2022-11-15T14:43:45;2.83;;;1.33;;
13263;SDS011;6700;51.988;7.646;2022-11-15T14:46:12;1.30;;;1.20;;
13263;SDS011;6700;51.988;7.646;2022-11-15T14:48:39;3.90;;;1.23;;
13263;SDS011;6700;51.988;7.646;2022-11-15T14:51:13;1.07;;;0.90;;
13263;SDS011;6700;51.988;7.646;2022-11-15T14:53:41;3.20;;;1.43;;
13263;SDS011;6700;51.988;7.646;2022-11-15T14:56:09;2.90;;;1.13;;
13263;SDS011;6700;51.988;7.646;2022-11-15T14:58:36;4.17;;;1.93;;
13263;SDS011;6700;51.988;7.646;2022-11-15T15:01:14;2.00;;;1.40;;
13263;SDS011;6700;51.988;7.646;2022-11-15T15:03:43;1.67;;;1.50;;
13263;SDS011;6700;51.988;7.646;2022-11-15T15:06:10;2.07;;;1.37;;
13263;SDS011;6700;51.988;7.646;2022-11-15T15:08:43;1.30;;;1.20;;
13263;SDS011;6700;51.988;7.646;2022-11-15T15:11:16;1.87;;;1.17;;
13263;SDS011;6700;51.988;7.646;2022-11-15T15:13:43;3.30;;;1.03;;
13263;SDS011;6700;51.988;7.646;2022-11-15T15:16:10;1.30;;;1.20;;
13263;SDS011;6700;51.988;7.646;2022-11-15T15:18:38;11.33;;;2.27;;
13263;SDS011;6700;51.988;7.646;2022-11-15T15:21:12;1.83;;;1.13;;
13263;SDS011;6700;51.988;7.646;2022-11-15T15:23:43;2.30;;;1.00;;
13263;SDS011;6700;51.988;7.646;2022-11-15T15:26:10;1.53;;;1.40;;
13263;SDS011;6700;51.988;7.646;2022-11-15T15:28:37;2.13;;;1.00;;
13263;SDS011;6700;51.988;7.646;2022-11-15T15:31:06;4.20;;;1.40;;
13263;SDS011;6700;51.988;7.646;2022-11-15T15:33:33;2.80;;;1.53;;
13263;SDS011;6700;51.988;7.646;2022-11-15T15:36:00;6.60;;;1.70;;
13263;SDS011;6700;51.988;7.646;2022-11-15T15:38:27;3.03;;;1.73;;
13263;SDS011;6700;51.988;7.646;2022-11-15T15:40:55;2.17;;;1.40;;
13263;SDS011;6700;51.988;7.646;2022-11-15T15:43:22;2.80;;;1.50;;
13263;SDS011;6700;51.988;7.646;2022-11-15T15:45:49;3.80;;;1.80;;
13263;SDS011;6700;51.988;7.646;2022-11-15T15:48:16;2.53;;;1.80;;
13263;SDS011;6700;51.988;7.646;2022-11-15T15:50:44;1.57;;;1.43;;
13263;SDS011;6700;51.988;7.646;2022-11-15T15:53:12;2.23;;;1.63;;
13263;SDS011;6700;51.988;7.646;2022-11-15T15:55:39;6.33;;;2.03;;
13263;SDS011;6700;51.988;7.646;2022-11-15T15:58:07;3.27;;;2.30;;
13263;SDS011;6700;51.988;7.646;2022-11-15T16:00:35;2.23;;;1.87;;
13263;SDS011;6700;51.988;7.646;2022-11-15T16:03:03;3.20;;;1.70;;
13263;SDS011;6700;51.988;7.646;2022-11-15T16:05:30;2.97;;;1.60;;
13263;SDS011;6700;51.988;7.646;2022-11-15T16:07:57;2.07;;;1.70;;
13263;SDS011;6700;51.988;7.646;2022-11-15T16:10:25;2.13;;;1.60;;
13263;SDS011;6700;51.988;7.646;2022-11-15T16:12:53;3.33;;;2.17;;
13263;SDS011;6700;51.988;7.646;2022-11-15T16:15:21;2.13;;;1.60;;
13263;SDS011;6700;51.988;7.646;2022-11-15T16:17:50;5.07;;;2.30;;
13263;SDS011;6700;51.988;7.646;2022-11-15T16:22:57;2.87;;;2.10;;
13263;SDS011;6700;51.988;7.646;2022-11-15T16:25:40;4.20;;;2.33;;
13263;SDS011;6700;51.988;7.646;2022-11-15T16:30:44;3.70;;;2.30;;
13263;SDS011;6700;51.988;7.646;2022-11-15T16:33:17;3.00;;;2.20;;
13263;SDS011;6700;51.988;7.646;2022-11-15T16:35:46;2.17;;;1.97;;
13263;SDS011;6700;51.988;7.646;2022-11-15T16:38:14;3.13;;;2.40;;
13263;SDS011;6700;51.988;7.646;2022-11-15T16:40:41;3.43;;;2.20;;
13263;SDS011;6700;51.988;7.646;2022-11-15T16:43:09;3.57;;;2.23;;
13263;SDS011;6700;51.988;7.646;2022-11-15T16:45:36;3.40;;;2.00;;
13263;SDS011;6700;51.988;7.646;2022-11-15T16:48:04;5.47;;;2.40;;
13263;SDS011;6700;51.988;7.646;2022-11-15T16:50:33;2.07;;;1.90;;
13263;SDS011;6700;51.988;7.646;2022-11-15T16:53:06;3.13;;;2.10;;
13263;SDS011;6700;51.988;7.646;2022-11-15T16:55:33;3.33;;;2.30;;
13263;SDS011;6700;51.988;7.646;2022-11-15T16:58:01;4.93;;;2.00;;
13263;SDS011;6700;51.988;7.646;2022-11-15T17:00:28;3.33;;;1.90;;